Isles of Scilly, United Kingdom
Current Conditions -  °F | °C
As of 9:50 AM on Tuesday 21 Oct 2014 (Local Time) from EGHE Reporting Station
Rain Showers Rain Showers  
Wind Chill: 55°   Ceiling: Unl
Heat Index: 55°   Visibility: 6mi
Dew Point: 45°   Wind: 32mph
Humidity: 67%   Direction: 310°NW
Pressure: 30"   Gusts: 44mph
Location:  49.91°N, 6.31°W
Report Text: EGHE 210850Z 31028G38KT 9999 VCSH SCT032 13/07 Q1016
Loading
Personal Weather Stations






























Interactive Weather Map New forecast layout! Learn more

10-Day Weather Forecast

Advertisements
Track Severe Weather on mobile